createdAt,value
2023-05-05T00:01:35.570Z,8.00
2023-05-05T00:04:02.715Z,8.00
2023-05-05T00:06:29.785Z,8.00
2023-05-05T00:08:56.896Z,8.00
2023-05-05T00:11:24.020Z,7.90
2023-05-05T00:13:51.659Z,7.90
2023-05-05T00:16:18.842Z,7.90
2023-05-05T00:18:45.927Z,7.90
2023-05-05T00:21:13.223Z,7.90
2023-05-05T00:23:40.443Z,7.90
2023-05-05T00:26:07.926Z,7.90
2023-05-05T00:28:35.017Z,7.70
2023-05-05T00:31:02.485Z,7.40
2023-05-05T00:33:29.631Z,7.40
2023-05-05T00:35:56.642Z,7.40
2023-05-05T00:38:23.646Z,7.40
2023-05-05T00:40:50.786Z,7.50
2023-05-05T00:43:17.893Z,7.60
2023-05-05T00:45:48.025Z,7.60
2023-05-05T00:48:17.127Z,7.60
2023-05-05T00:50:45.262Z,7.50
2023-05-05T00:53:12.382Z,7.40
2023-05-05T00:55:39.518Z,7.30
2023-05-05T00:58:06.736Z,7.20
2023-05-05T01:00:34.706Z,7.20
2023-05-05T01:03:01.875Z,7.10
2023-05-05T01:05:42.244Z,7.20
2023-05-05T01:08:44.914Z,7.20
2023-05-05T01:11:26.981Z,7.10
2023-05-05T01:14:14.789Z,6.90
2023-05-05T01:16:52.267Z,6.70
2023-05-05T01:19:59.174Z,6.70
2023-05-05T01:22:34.916Z,6.70
2023-05-05T01:25:11.555Z,6.80
2023-05-05T01:27:47.629Z,6.80
2023-05-05T01:30:35.655Z,6.90
2023-05-05T01:33:06.956Z,6.90
2023-05-05T01:35:41.875Z,6.80
2023-05-05T01:38:22.625Z,6.90
2023-05-05T01:40:57.813Z,6.90
2023-05-05T01:43:27.914Z,7.00
2023-05-05T01:45:57.601Z,6.70
2023-05-05T01:48:26.153Z,6.70
2023-05-05T01:50:54.169Z,6.70
2023-05-05T01:53:24.319Z,6.80
2023-05-05T01:55:53.984Z,7.00
2023-05-05T01:58:23.002Z,6.80
2023-05-05T02:00:52.081Z,6.90
2023-05-05T02:03:22.902Z,7.10
2023-05-05T02:05:53.321Z,7.20
2023-05-05T02:08:21.281Z,7.30
2023-05-05T02:10:52.765Z,7.30
2023-05-05T02:13:22.280Z,7.30
2023-05-05T02:15:50.619Z,7.30
2023-05-05T02:18:18.833Z,7.30
2023-05-05T02:20:47.183Z,7.30
2023-05-05T02:23:14.425Z,7.40
2023-05-05T02:25:45.809Z,7.40
2023-05-05T02:28:22.662Z,7.40
2023-05-05T02:30:59.364Z,7.40
2023-05-05T02:33:31.037Z,7.40
2023-05-05T02:36:04.448Z,7.40
2023-05-05T02:38:33.811Z,7.40
2023-05-05T02:41:04.628Z,7.40
2023-05-05T02:43:33.279Z,7.40
2023-05-05T02:46:01.390Z,7.30
2023-05-05T02:48:30.128Z,7.20
2023-05-05T02:51:01.074Z,7.20
2023-05-05T02:53:33.640Z,7.30
2023-05-05T02:56:21.198Z,7.30
2023-05-05T02:59:03.600Z,7.30
2023-05-05T03:01:46.613Z,7.40
2023-05-05T03:04:27.849Z,7.40
2023-05-05T03:06:59.751Z,7.40
2023-05-05T03:09:43.662Z,7.40
2023-05-05T03:12:13.993Z,7.40
2023-05-05T03:14:54.344Z,7.30
2023-05-05T03:17:24.609Z,7.30
2023-05-05T03:19:52.693Z,7.20
2023-05-05T03:22:20.417Z,7.10
2023-05-05T03:24:51.946Z,7.00
2023-05-05T03:27:23.103Z,7.00
2023-05-05T03:29:51.204Z,7.00
2023-05-05T03:32:18.535Z,7.10
2023-05-05T03:34:46.278Z,7.10
2023-05-05T03:37:13.423Z,7.10
2023-05-05T03:39:42.334Z,7.10
2023-05-05T03:42:10.817Z,7.10
2023-05-05T03:44:37.962Z,7.10
2023-05-05T03:47:05.288Z,6.90
2023-05-05T03:49:35.376Z,6.90
2023-05-05T03:52:03.235Z,6.80
2023-05-05T03:54:31.448Z,6.90
2023-05-05T03:56:58.584Z,6.90
2023-05-05T03:59:26.388Z,6.80
2023-05-05T04:01:53.719Z,6.80
2023-05-05T04:04:21.525Z,6.80
2023-05-05T04:06:48.726Z,6.80
2023-05-05T04:09:15.908Z,6.80
2023-05-05T04:11:43.776Z,6.70
2023-05-05T04:14:11.873Z,6.70
2023-05-05T04:16:38.955Z,6.70
2023-05-05T04:19:05.976Z,7.00
2023-05-05T04:21:33.284Z,8.10
2023-05-05T04:24:00.895Z,9.10
2023-05-05T04:26:27.955Z,10.30
2023-05-05T04:28:56.006Z,11.10
2023-05-05T04:31:23.437Z,12.00
2023-05-05T04:33:51.240Z,12.50
2023-05-05T04:36:21.818Z,13.20
2023-05-05T04:38:48.931Z,13.10
2023-05-05T04:41:16.230Z,12.80
2023-05-05T04:43:44.326Z,12.80
2023-05-05T04:46:11.509Z,13.80
2023-05-05T04:48:39.063Z,14.80
2023-05-05T04:51:08.005Z,15.30
2023-05-05T04:53:36.347Z,15.80
2023-05-05T04:56:03.592Z,16.20
2023-05-05T04:58:31.839Z,16.50
2023-05-05T05:01:02.112Z,17.00
2023-05-05T05:03:35.205Z,17.00
2023-05-05T05:06:03.208Z,15.50
2023-05-05T05:08:30.328Z,14.10
2023-05-05T05:10:57.375Z,12.70
2023-05-05T05:13:24.831Z,11.80
2023-05-05T05:15:54.867Z,11.30
2023-05-05T05:18:21.997Z,10.90
2023-05-05T05:20:50.164Z,10.60
2023-05-05T05:23:17.349Z,10.40
2023-05-05T05:25:46.529Z,10.30
2023-05-05T05:28:15.739Z,10.30
2023-05-05T05:30:48.526Z,10.30
2023-05-05T05:33:15.614Z,10.60
2023-05-05T05:35:43.777Z,10.60
2023-05-05T05:38:11.414Z,11.80
2023-05-05T05:40:38.420Z,12.40
2023-05-05T05:43:06.700Z,12.40
2023-05-05T05:45:35.003Z,12.70
2023-05-05T05:48:04.049Z,14.70
2023-05-05T05:50:31.579Z,15.60
2023-05-05T05:52:59.433Z,17.40
2023-05-05T05:55:27.208Z,19.10
2023-05-05T05:57:54.766Z,18.70
2023-05-05T06:00:22.120Z,19.00
2023-05-05T06:02:56.793Z,20.00
2023-05-05T06:05:28.360Z,19.10
2023-05-05T06:07:55.468Z,17.90
2023-05-05T06:10:27.555Z,16.90
2023-05-05T06:13:01.569Z,15.80
2023-05-05T06:15:29.720Z,15.10
2023-05-05T06:17:57.713Z,14.70
2023-05-05T06:20:30.835Z,14.80
2023-05-05T06:22:58.167Z,17.90
2023-05-05T06:25:27.075Z,21.00
2023-05-05T06:27:54.115Z,22.40
2023-05-05T06:30:21.081Z,23.70
2023-05-05T06:32:48.452Z,25.60
2023-05-05T06:35:15.588Z,26.80
2023-05-05T06:37:42.618Z,27.70
2023-05-05T06:40:10.743Z,28.80
2023-05-05T06:42:41.540Z,29.60
2023-05-05T06:45:11.540Z,30.60
2023-05-05T06:47:38.674Z,31.40
2023-05-05T06:50:07.473Z,31.70
2023-05-05T06:52:34.719Z,32.00
2023-05-05T06:55:01.856Z,31.80
2023-05-05T06:57:29.382Z,31.40
2023-05-05T06:59:56.447Z,31.20
2023-05-05T07:02:24.793Z,30.30
2023-05-05T07:04:55.689Z,29.70
2023-05-05T07:07:22.842Z,29.10
2023-05-05T07:09:50.042Z,27.90
2023-05-05T07:12:17.072Z,26.90
2023-05-05T07:14:44.078Z,26.20
2023-05-05T07:17:11.897Z,25.70
2023-05-05T07:19:38.918Z,25.10
2023-05-05T07:22:06.054Z,24.70
2023-05-05T07:24:33.129Z,24.10
2023-05-05T07:27:00.193Z,23.30
2023-05-05T07:29:30.059Z,22.80
2023-05-05T07:31:57.116Z,22.30
2023-05-05T07:34:24.149Z,21.80
2023-05-05T07:36:51.189Z,21.60
2023-05-05T07:39:19.560Z,21.40
2023-05-05T07:41:46.613Z,21.00
2023-05-05T07:44:13.788Z,20.70
2023-05-05T07:46:40.861Z,20.70
2023-05-05T07:49:07.845Z,20.70
2023-05-05T07:51:35.060Z,20.70
2023-05-05T07:54:02.073Z,20.60
2023-05-05T07:56:29.184Z,20.70
2023-05-05T07:58:56.401Z,20.70
2023-05-05T08:01:23.550Z,20.70
2023-05-05T08:03:50.811Z,20.60
2023-05-05T08:06:22.423Z,20.60
2023-05-05T08:08:49.952Z,20.60
2023-05-05T08:11:17.445Z,20.40
2023-05-05T08:13:44.416Z,20.50
2023-05-05T08:16:12.713Z,20.60
2023-05-05T08:18:39.823Z,20.50
2023-05-05T08:21:08.367Z,20.50
2023-05-05T08:23:35.997Z,20.60
2023-05-05T08:26:04.624Z,20.70
2023-05-05T08:28:31.707Z,20.70
2023-05-05T08:30:59.465Z,20.70
2023-05-05T08:33:26.534Z,20.80
2023-05-05T08:35:53.520Z,20.80
2023-05-05T08:38:20.666Z,20.80
2023-05-05T08:40:47.858Z,21.00
2023-05-05T08:43:16.175Z,20.90
2023-05-05T08:45:43.619Z,20.80
2023-05-05T08:48:13.090Z,20.90
2023-05-05T08:50:42.084Z,21.00
2023-05-05T08:53:17.038Z,20.90
2023-05-05T08:55:56.734Z,21.00
2023-05-05T08:58:25.551Z,20.90
2023-05-05T09:00:54.206Z,21.00
2023-05-05T09:03:21.853Z,21.00
2023-05-05T09:05:49.065Z,21.10
2023-05-05T09:08:16.894Z,21.30
2023-05-05T09:10:44.888Z,21.20
2023-05-05T09:13:12.149Z,21.20
2023-05-05T09:15:39.318Z,21.20
2023-05-05T09:18:09.525Z,21.20
2023-05-05T09:20:38.048Z,21.20
2023-05-05T09:23:19.382Z,21.20
2023-05-05T09:26:08.214Z,21.40
2023-05-05T09:28:35.240Z,21.60
2023-05-05T09:31:16.362Z,21.80
2023-05-05T09:33:43.951Z,22.00
2023-05-05T09:36:12.395Z,22.10
2023-05-05T09:38:39.684Z,22.10
2023-05-05T09:41:06.724Z,22.20
2023-05-05T09:43:54.156Z,22.30
2023-05-05T09:46:21.480Z,22.30
2023-05-05T09:48:48.689Z,22.40
2023-05-05T09:51:15.982Z,22.40
2023-05-05T09:53:43.134Z,22.30
2023-05-05T09:56:10.579Z,22.30
2023-05-05T09:58:37.783Z,22.40
2023-05-05T10:01:05.075Z,22.50
2023-05-05T10:03:32.274Z,22.60
2023-05-05T10:06:01.201Z,22.40
2023-05-05T10:08:34.476Z,22.60
2023-05-05T10:11:07.395Z,22.80
2023-05-05T10:13:40.437Z,22.90
2023-05-05T10:16:09.780Z,22.90
2023-05-05T10:18:40.428Z,23.10
2023-05-05T10:21:08.666Z,23.30
2023-05-05T10:23:54.817Z,23.40
2023-05-05T10:26:23.386Z,23.60
2023-05-05T10:29:01.544Z,23.60
2023-05-05T10:31:46.795Z,23.60
2023-05-05T10:34:18.574Z,23.10
2023-05-05T10:36:45.796Z,22.60
2023-05-05T10:39:16.421Z,22.20
2023-05-05T10:41:44.073Z,22.20
2023-05-05T10:44:12.325Z,22.10
2023-05-05T10:46:39.760Z,22.10
2023-05-05T10:49:18.889Z,22.20
2023-05-05T10:52:20.703Z,22.50
2023-05-05T10:55:06.091Z,22.50
2023-05-05T10:57:39.227Z,22.50
2023-05-05T11:00:08.779Z,22.40
2023-05-05T11:02:36.388Z,22.30
2023-05-05T11:05:04.129Z,22.40
2023-05-05T11:07:31.777Z,22.50
2023-05-05T11:10:03.785Z,22.60
2023-05-05T11:12:32.108Z,22.70
2023-05-05T11:15:24.308Z,22.80
2023-05-05T11:17:52.118Z,23.00
2023-05-05T11:20:43.722Z,23.30
2023-05-05T11:23:10.705Z,23.50
2023-05-05T11:25:38.246Z,23.40
2023-05-05T11:28:08.633Z,23.20
2023-05-05T11:30:57.157Z,23.20
2023-05-05T11:33:37.162Z,23.30
2023-05-05T11:36:12.059Z,23.60
2023-05-05T11:39:01.273Z,23.60
2023-05-05T11:41:34.036Z,23.80
2023-05-05T11:44:20.725Z,23.80
2023-05-05T11:46:56.659Z,23.90
2023-05-05T11:49:26.888Z,23.70
2023-05-05T11:52:04.875Z,23.30
2023-05-05T11:54:32.730Z,22.80
2023-05-05T11:57:10.416Z,22.50
2023-05-05T12:00:03.178Z,22.50
2023-05-05T12:02:31.901Z,22.70
2023-05-05T12:05:00.343Z,22.70
2023-05-05T12:07:30.169Z,22.70
2023-05-05T12:09:57.865Z,23.00
2023-05-05T12:12:36.288Z,22.90
2023-05-05T12:15:04.248Z,22.50
2023-05-05T12:17:40.202Z,22.40
2023-05-05T12:20:09.225Z,22.40
2023-05-05T12:22:36.844Z,22.40
2023-05-05T12:25:06.647Z,22.10
2023-05-05T12:27:33.883Z,21.60
2023-05-05T12:30:15.821Z,21.50
2023-05-05T12:32:43.970Z,21.50
2023-05-05T12:35:12.386Z,21.60
2023-05-05T12:37:40.046Z,21.90
2023-05-05T12:40:09.107Z,22.20
2023-05-05T12:42:40.398Z,22.50
2023-05-05T12:45:16.053Z,22.80
2023-05-05T12:47:45.289Z,22.80
2023-05-05T12:50:12.635Z,22.80
2023-05-05T12:52:46.207Z,22.80
2023-05-05T12:55:13.868Z,22.70
2023-05-05T12:58:01.159Z,23.00
2023-05-05T13:00:29.437Z,23.20
2023-05-05T13:02:57.104Z,23.20
2023-05-05T13:05:36.752Z,23.20
2023-05-05T13:08:03.955Z,23.20
2023-05-05T13:10:31.641Z,23.10
2023-05-05T13:12:58.806Z,23.10
2023-05-05T13:15:26.245Z,22.80
2023-05-05T13:18:01.919Z,22.60
2023-05-05T13:20:29.461Z,22.60
2023-05-05T13:22:57.440Z,22.50
2023-05-05T13:25:24.470Z,22.50
2023-05-05T13:27:51.600Z,22.50
2023-05-05T13:30:18.806Z,22.50
2023-05-05T13:32:45.881Z,22.70
2023-05-05T13:35:15.518Z,22.50
2023-05-05T13:37:44.510Z,22.50
2023-05-05T13:40:13.491Z,22.50
2023-05-05T13:42:40.477Z,22.50
2023-05-05T13:45:08.107Z,22.60
2023-05-05T13:47:35.420Z,22.60
2023-05-05T13:50:02.469Z,22.60
2023-05-05T13:52:31.106Z,22.40
2023-05-05T13:54:59.130Z,22.20
2023-05-05T13:57:27.897Z,22.10
2023-05-05T13:59:55.301Z,22.10
2023-05-05T14:02:22.381Z,22.30
2023-05-05T14:04:49.399Z,22.20
2023-05-05T14:07:16.371Z,22.10
2023-05-05T14:09:43.456Z,22.00
2023-05-05T14:12:10.627Z,22.00
2023-05-05T14:14:37.868Z,22.00
2023-05-05T14:17:05.010Z,22.00
2023-05-05T14:19:32.187Z,22.10
2023-05-05T14:21:59.193Z,22.20
2023-05-05T14:24:26.367Z,22.10
2023-05-05T14:26:53.538Z,22.00
2023-05-05T14:29:20.775Z,22.00
2023-05-05T14:31:47.863Z,21.90
2023-05-05T14:34:15.091Z,21.70
2023-05-05T14:36:42.303Z,21.60
2023-05-05T14:39:09.450Z,21.50
2023-05-05T14:41:36.572Z,21.50
2023-05-05T14:44:04.000Z,21.50
2023-05-05T14:46:31.820Z,21.40
2023-05-05T14:48:59.099Z,21.40
2023-05-05T14:51:26.316Z,21.40
2023-05-05T14:53:53.420Z,21.40
2023-05-05T14:56:22.772Z,21.40
2023-05-05T14:58:49.992Z,21.40
2023-05-05T15:01:17.250Z,21.30
2023-05-05T15:03:44.584Z,21.20
2023-05-05T15:06:20.868Z,21.10
2023-05-05T15:08:48.088Z,21.00
2023-05-05T15:11:15.105Z,20.80
2023-05-05T15:13:42.146Z,20.50
2023-05-05T15:16:09.177Z,20.40
2023-05-05T15:18:36.644Z,20.20
2023-05-05T15:21:04.895Z,20.10
2023-05-05T15:23:31.944Z,20.10
2023-05-05T15:25:59.020Z,20.00
2023-05-05T15:28:26.355Z,19.90
2023-05-05T15:30:53.422Z,19.80
2023-05-05T15:33:20.472Z,19.70
2023-05-05T15:35:47.502Z,19.60
2023-05-05T15:38:14.490Z,19.50
2023-05-05T15:40:42.023Z,19.50
2023-05-05T15:43:09.041Z,19.50
2023-05-05T15:45:36.306Z,19.50
2023-05-05T15:48:03.299Z,19.50
2023-05-05T15:50:33.449Z,19.40
2023-05-05T15:53:00.817Z,19.40
2023-05-05T15:55:28.290Z,19.20
2023-05-05T15:57:55.387Z,19.10
2023-05-05T16:00:22.784Z,19.00
2023-05-05T16:02:49.912Z,18.80
2023-05-05T16:05:17.103Z,18.70
2023-05-05T16:07:44.162Z,18.70
2023-05-05T16:10:11.584Z,18.70
2023-05-05T16:12:38.727Z,18.60
2023-05-05T16:15:06.614Z,18.60
2023-05-05T16:17:33.974Z,18.60
2023-05-05T16:20:00.997Z,18.60
2023-05-05T16:22:28.149Z,18.70
2023-05-05T16:24:55.146Z,18.70
2023-05-05T16:27:22.687Z,18.60
2023-05-05T16:29:49.757Z,18.50
2023-05-05T16:32:16.763Z,18.40
2023-05-05T16:34:43.905Z,18.30
2023-05-05T16:37:13.518Z,18.20
2023-05-05T16:39:41.440Z,18.00
2023-05-05T16:42:08.562Z,17.80
2023-05-05T16:44:35.799Z,17.70
2023-05-05T16:47:02.847Z,17.50
2023-05-05T16:49:30.014Z,17.40
2023-05-05T16:51:57.351Z,17.30
2023-05-05T16:54:27.416Z,17.10
2023-05-05T16:56:55.138Z,17.00
2023-05-05T16:59:22.257Z,16.90
2023-05-05T17:01:49.329Z,16.80
2023-05-05T17:04:22.487Z,16.70
2023-05-05T17:06:49.948Z,16.70
2023-05-05T17:09:17.029Z,16.60
2023-05-05T17:11:44.133Z,16.50
2023-05-05T17:14:11.163Z,16.50
2023-05-05T17:16:38.894Z,16.40
2023-05-05T17:19:06.117Z,16.30
2023-05-05T17:21:33.190Z,16.30
2023-05-05T17:24:00.258Z,16.20
2023-05-05T17:26:27.379Z,16.10
2023-05-05T17:28:54.479Z,16.00
2023-05-05T17:31:22.085Z,15.90
2023-05-05T17:33:49.105Z,15.70
2023-05-05T17:36:16.144Z,15.60
2023-05-05T17:38:43.242Z,15.50
2023-05-05T17:41:10.323Z,15.40
2023-05-05T17:43:37.379Z,15.30
2023-05-05T17:46:04.578Z,15.20
2023-05-05T17:48:31.672Z,15.10
2023-05-05T17:50:58.643Z,15.00
2023-05-05T17:53:26.644Z,15.00
2023-05-05T17:55:54.653Z,14.90
2023-05-05T17:58:21.604Z,14.80
2023-05-05T18:00:48.652Z,14.70
2023-05-05T18:03:15.833Z,14.70
2023-05-05T18:05:42.995Z,14.50
2023-05-05T18:08:10.036Z,14.40
2023-05-05T18:10:37.084Z,14.40
2023-05-05T18:13:04.139Z,14.30
2023-05-05T18:15:31.285Z,14.20
2023-05-05T18:17:58.312Z,14.20
2023-05-05T18:20:25.478Z,14.20
2023-05-05T18:22:53.015Z,14.10
2023-05-05T18:25:20.176Z,14.00
2023-05-05T18:27:47.230Z,14.00
2023-05-05T18:30:14.421Z,14.00
2023-05-05T18:32:41.439Z,14.00
2023-05-05T18:35:08.997Z,14.00
2023-05-05T18:37:36.389Z,14.10
2023-05-05T18:40:03.532Z,14.10
2023-05-05T18:42:30.596Z,14.10
2023-05-05T18:44:57.554Z,14.10
2023-05-05T18:47:25.308Z,14.10
2023-05-05T18:49:52.319Z,14.10
2023-05-05T18:52:19.362Z,14.10
2023-05-05T18:54:46.456Z,14.10
2023-05-05T18:57:13.558Z,14.10
2023-05-05T18:59:40.603Z,14.00
2023-05-05T19:02:08.102Z,13.70
2023-05-05T19:04:38.099Z,13.50
2023-05-05T19:07:05.355Z,13.30
2023-05-05T19:09:32.379Z,13.00
2023-05-05T19:12:02.456Z,12.90
2023-05-05T19:14:29.549Z,12.60
2023-05-05T19:16:59.098Z,12.50
2023-05-05T19:19:26.460Z,12.40
2023-05-05T19:21:53.506Z,12.30
2023-05-05T19:24:20.566Z,12.20
2023-05-05T19:26:50.081Z,12.10
2023-05-05T19:29:17.324Z,12.00
2023-05-05T19:31:44.323Z,11.70
2023-05-05T19:34:11.464Z,11.60
2023-05-05T19:36:38.601Z,11.40
2023-05-05T19:39:05.782Z,11.40
2023-05-05T19:41:35.433Z,11.30
2023-05-05T19:44:03.168Z,11.20
2023-05-05T19:46:30.256Z,11.20
2023-05-05T19:48:57.252Z,11.20
2023-05-05T19:51:24.342Z,11.20
2023-05-05T19:53:51.378Z,11.20
2023-05-05T19:56:18.697Z,11.00
2023-05-05T19:59:02.312Z,11.10
2023-05-05T20:01:30.050Z,11.00
2023-05-05T20:03:57.514Z,11.10
2023-05-05T20:06:24.887Z,11.00
2023-05-05T20:08:52.497Z,10.90
2023-05-05T20:11:21.309Z,10.90
2023-05-05T20:13:51.845Z,10.80
2023-05-05T20:16:19.343Z,10.80
2023-05-05T20:18:49.500Z,10.70
2023-05-05T20:21:17.711Z,10.70
2023-05-05T20:23:46.080Z,10.70
2023-05-05T20:26:16.588Z,10.70
2023-05-05T20:28:45.282Z,10.70
2023-05-05T20:31:14.403Z,10.60
2023-05-05T20:33:41.614Z,10.40
2023-05-05T20:36:08.618Z,10.30
2023-05-05T20:38:39.088Z,10.20
2023-05-05T20:41:06.476Z,10.00
2023-05-05T20:43:34.165Z,9.80
2023-05-05T20:46:01.333Z,9.70
2023-05-05T20:48:28.837Z,9.70
2023-05-05T20:50:59.064Z,9.60
2023-05-05T20:53:27.270Z,9.70
2023-05-05T20:55:54.651Z,9.70
2023-05-05T20:58:22.054Z,9.80
2023-05-05T21:00:49.315Z,9.90
2023-05-05T21:03:16.690Z,9.90
2023-05-05T21:05:44.970Z,9.90
2023-05-05T21:08:12.271Z,9.80
2023-05-05T21:10:40.272Z,9.80
2023-05-05T21:13:07.890Z,9.80
2023-05-05T21:15:40.773Z,9.80
2023-05-05T21:18:08.206Z,9.80
2023-05-05T21:20:35.503Z,9.80
2023-05-05T21:23:03.069Z,9.80
2023-05-05T21:25:31.160Z,9.90
2023-05-05T21:27:58.586Z,10.10
2023-05-05T21:30:27.323Z,10.20
2023-05-05T21:32:55.534Z,10.30
2023-05-05T21:35:23.166Z,10.40
2023-05-05T21:37:50.723Z,10.50
2023-05-05T21:40:18.226Z,10.50
2023-05-05T21:42:45.689Z,10.60
2023-05-05T21:45:13.037Z,10.60
2023-05-05T21:47:40.127Z,10.60
2023-05-05T21:50:08.023Z,10.60
2023-05-05T21:52:35.537Z,10.60
2023-05-05T21:55:03.375Z,10.60
2023-05-05T21:57:30.368Z,10.60
2023-05-05T21:59:57.504Z,10.60
2023-05-05T22:02:24.781Z,10.60
2023-05-05T22:04:52.268Z,10.60
2023-05-05T22:07:19.485Z,10.60
2023-05-05T22:09:46.587Z,10.60
2023-05-05T22:12:13.712Z,10.70
2023-05-05T22:14:40.753Z,10.70
2023-05-05T22:17:08.143Z,10.60
2023-05-05T22:19:35.302Z,10.60
2023-05-05T22:22:03.086Z,10.60
2023-05-05T22:24:30.355Z,10.50
2023-05-05T22:26:57.579Z,10.40
2023-05-05T22:29:25.364Z,10.40
2023-05-05T22:31:52.534Z,10.40
2023-05-05T22:34:21.969Z,10.40
2023-05-05T22:36:52.673Z,10.40
2023-05-05T22:39:19.816Z,10.40
2023-05-05T22:41:47.128Z,10.50
2023-05-05T22:44:14.221Z,10.40
2023-05-05T22:46:41.408Z,10.20
2023-05-05T22:49:08.891Z,10.20
2023-05-05T22:51:35.968Z,10.10
2023-05-05T22:54:03.113Z,10.00
2023-05-05T22:56:30.359Z,9.80
2023-05-05T22:58:57.550Z,9.70
2023-05-05T23:01:24.604Z,9.70
2023-05-05T23:03:51.991Z,9.70
2023-05-05T23:06:18.983Z,9.80
2023-05-05T23:08:46.321Z,9.90
2023-05-05T23:11:13.346Z,10.00
2023-05-05T23:13:40.357Z,10.10
2023-05-05T23:16:07.928Z,10.10
2023-05-05T23:18:35.857Z,10.20
2023-05-05T23:21:02.977Z,10.30
2023-05-05T23:23:31.276Z,10.30
2023-05-05T23:25:58.250Z,10.40
2023-05-05T23:28:25.368Z,10.40
2023-05-05T23:30:52.488Z,10.50
2023-05-05T23:33:19.679Z,10.50
2023-05-05T23:35:47.217Z,10.40
2023-05-05T23:38:14.208Z,10.40
2023-05-05T23:40:41.218Z,10.40
2023-05-05T23:43:08.338Z,10.50
2023-05-05T23:45:35.313Z,10.40
2023-05-05T23:48:02.475Z,10.40
2023-05-05T23:50:30.673Z,10.50
2023-05-05T23:52:57.671Z,10.50
2023-05-05T23:55:24.713Z,10.50
2023-05-05T23:57:54.591Z,10.50
